Pelagos — SZSW — position and weather

sailwx.info

Track history (hours):
 
Tides and Currents Weather Stations Pressure Air Temp Water Temp Dewpoint Dewpoint Depression Visibility Wind Speed Wind Dir Waves Ship Positions

Pelagos

Last reported at 2014-Sep-20 17:08 UTC. Time now 2014-Sep-20 18:02 UTC.
Position N 58°04' E 006°01'.

Length 249 m; draft 8 m.

Type: Ship. MMSI: 240335000.

Date/timePositionNaut miles runAvg speedWind from/ knotsBaromVisibWave heightAir tempDewpointWater temp
2014-Sep-20 17:08N 58°04' E 006°01'3 6.0
2014-Sep-20 16:33N 58°02' E 006°06'57 6.4
2014-Sep-20 07:33N 57°46' E 007°49'6 6.0
2014-Sep-20 06:31N 57°46' E 008°01'6 5.9
2014-Sep-20 05:30N 57°46' E 008°12'14 6.8
2014-Sep-20 03:29N 57°47' E 008°38'7 7.9
2014-Sep-20 02:33N 57°47' E 008°51'7 6.8
2014-Sep-20 01:33N 57°47' E 009°04'6 6.0
2014-Sep-20 00:33N 57°47' E 009°15'6 5.9
2014-Sep-19 23:33N 57°47' E 009°27'7 6.9
2014-Sep-19 22:32N 57°48' E 009°40'7 6.5
2014-Sep-19 21:23N 57°48' E 009°54'15 7.8
2014-Sep-19 19:29N 57°48' E 010°21'1010.2
2014-Sep-19 18:33N 57°49' E 010°39'7 7.3
2014-Sep-19 17:33N 57°42' E 010°46'5 3.9
2014-Sep-19 16:16N 57°38' E 010°41'0 0.0
2014-Sep-19 15:31N 57°38' E 010°41'0 0.0
2014-Sep-19 13:04N 57°38' E 010°41'0 0.0
2014-Sep-19 12:25N 57°38' E 010°41'0 0.0
2014-Sep-19 11:28N 57°38' E 010°41'0 0.1
2014-Sep-19 10:31N 57°38' E 010°41'0 0.0
2014-Sep-19 09:31N 57°38' E 010°41'0 0.0
2014-Sep-19 08:31N 57°38' E 010°41'0 0.0
2014-Sep-19 07:28N 57°38' E 010°41'0 0.0
2014-Sep-19 06:31N 57°38' E 010°41'0 0.0
2014-Sep-19 05:31N 57°38' E 010°41'0 0.0
2014-Sep-19 04:31N 57°38' E 010°41'0 0.0
2014-Sep-19 03:31N 57°38' E 010°41'0 0.0
2014-Sep-19 02:25N 57°38' E 010°41'0 0.0
2014-Sep-19 01:28N 57°38' E 010°41'0 0.0
2014-Sep-19 00:22N 57°38' E 010°41'0 0.0
2014-Sep-18 23:22N 57°38' E 010°41'0 0.0
2014-Sep-18 21:07N 57°38' E 010°41'0 0.0
2014-Sep-18 20:19N 57°38' E 010°41'0 0.0
2014-Sep-18 19:22N 57°38' E 010°41'0 0.0
2014-Sep-18 17:07N 57°38' E 010°41'0 0.0
2014-Sep-18 15:25N 57°38' E 010°41'0 0.0
2014-Sep-18 14:19N 57°38' E 010°41'0 0.0
2014-Sep-18 12:22N 57°38' E 010°41'0 0.0
2014-Sep-18 09:31N 57°38' E 010°41'0 0.0
2014-Sep-18 08:19N 57°38' E 010°41'0 0.0
2014-Sep-18 07:13N 57°38' E 010°41'0 0.0
2014-Sep-18 06:04N 57°38' E 010°41'0 0.0
2014-Sep-18 05:22N 57°38' E 010°41'0 0.0
2014-Sep-18 04:25N 57°38' E 010°41'0 0.0
2014-Sep-18 02:22N 57°38' E 010°41'0 0.0
2014-Sep-18 01:22N 57°38' E 010°41'0 0.0
2014-Sep-18 00:31N 57°38' E 010°41'0 0.0
2014-Sep-17 23:31N 57°38' E 010°41'0 0.0
2014-Sep-17 22:25N 57°38' E 010°41'0 0.0
2014-Sep-17 21:22N 57°38' E 010°41'0 0.0
2014-Sep-17 20:19N 57°38' E 010°41'0 0.0
2014-Sep-17 19:28N 57°38' E 010°41'0 0.0
2014-Sep-17 18:31N 57°38' E 010°41'0 0.0
2014-Sep-17 17:16N 57°38' E 010°41'0 0.0
2014-Sep-17 16:28N 57°38' E 010°41'0 0.0
2014-Sep-17 13:25N 57°38' E 010°41'0 0.0
2014-Sep-17 12:19N 57°38' E 010°41'0 0.0
2014-Sep-17 10:22N 57°38' E 010°41'0 0.0
2014-Sep-17 09:31N 57°38' E 010°41'0 0.0
2014-Sep-17 07:28N 57°38' E 010°41'0 0.0
2014-Sep-17 06:28N 57°38' E 010°41'0 0.0
2014-Sep-17 05:28N 57°38' E 010°41'0 0.0
2014-Sep-17 04:28N 57°38' E 010°41'0 0.0
2014-Sep-17 03:31N 57°38' E 010°41'0 0.0
2014-Sep-17 02:31N 57°38' E 010°41'0 0.0
2014-Sep-17 01:25N 57°38' E 010°41'0 0.0
2014-Sep-17 00:28N 57°38' E 010°41'0 0.0
2014-Sep-16 22:22N 57°38' E 010°41'0 0.0
2014-Sep-16 21:31N 57°38' E 010°41'0 0.0
2014-Sep-16 20:25N 57°38' E 010°41'0 0.0
2014-Sep-16 19:28N 57°38' E 010°41'0 0.0
2014-Sep-16 18:31N 57°38' E 010°41'0 0.0
2014-Sep-16 17:10N 57°38' E 010°41'0 0.0
2014-Sep-16 16:19N 57°38' E 010°41'0 0.0
2014-Sep-16 13:22N 57°38' E 010°41'0 0.0
2014-Sep-16 09:16N 57°38' E 010°41'0 0.0
2014-Sep-16 08:28N 57°38' E 010°41'0 0.1
2014-Sep-16 07:28N 57°38' E 010°41'0 0.1
2014-Sep-16 06:22N 57°38' E 010°41'0 0.0
2014-Sep-16 05:25N 57°38' E 010°41'0 0.0
2014-Sep-16 03:19N 57°38' E 010°41'0 0.0
2014-Sep-16 02:04N 57°38' E 010°41'0 0.0
2014-Sep-16 01:25N 57°38' E 010°41'0 0.0
2014-Sep-16 00:31N 57°38' E 010°41'0 0.0
2014-Sep-15 23:16N 57°38' E 010°41'0 0.1
2014-Sep-15 22:31N 57°38' E 010°41'0 0.0
2014-Sep-15 20:07N 57°38' E 010°41'0 0.1
2014-Sep-15 19:22N 57°38' E 010°41'0 0.0
2014-Sep-15 18:28N 57°38' E 010°41'0 0.0
2014-Sep-15 17:22N 57°38' E 010°41'0 0.0
2014-Sep-15 16:31N 57°38' E 010°41'2 2.4
2014-Sep-15 15:33N 57°40' E 010°43'7 7.0
2014-Sep-15 14:32N 57°47' E 010°42'284 6.0
2014-Sep-13 15:24N 54°16' E 005°02'6 7.2
2014-Sep-13 14:32N 54°11' E 004°57'7 6.9
2014-Sep-13 13:31N 54°05' E 004°50'7 6.6
2014-Sep-13 12:25N 53°59' E 004°42'7 6.0
2014-Sep-13 11:16N 53°54' E 004°34'4 4.9
2014-Sep-13 10:28N 53°51' E 004°30'5 5.0
2014-Sep-13 09:33N 53°48' E 004°24'7 5.3
2014-Sep-13 08:16N 53°44' E 004°16'61 6.2
2014-Sep-12 22:33N 52°53' E 003°19'8 6.8
2014-Sep-12 21:27N 52°47' E 003°13'23 5.8
2014-Sep-12 17:30N 52°27' E 002°55'20 4.1
2014-Sep-12 12:31N 52°07' E 002°46'0 0.0
2014-Sep-11 22:28N 52°07' E 002°45'0 0.0
2014-Sep-11 21:31N 52°07' E 002°46'30 1.3
2014-Sep-10 23:33N 52°03' E 003°33'1212.3
2014-Sep-10 22:33N 52°02' E 003°53'1111.4
2014-Sep-10 21:34N 51°57' E 004°09'2 1.8
2014-Sep-10 20:31N 51°56' E 004°12'0 0.0
2014-Sep-10 19:31N 51°56' E 004°12'0 0.0
2014-Sep-10 18:31N 51°56' E 004°12'0 0.0
2014-Sep-10 17:28N 51°56' E 004°12'  
Track history (hours):
 
Tides and Currents Weather Stations Pressure Air Temp Water Temp Dewpoint Dewpoint Depression Visibility Wind Speed Wind Dir Waves Ship Positions

Pelagos

Last reported at 2014-Sep-20 17:08 UTC. Time now 2014-Sep-20 18:02 UTC.
Position N 58°04' E 006°01'.

Length 249 m; draft 8 m.

Type: Ship. MMSI: 240335000.

Date/timePositionNaut miles runAvg speedWind from/ knotsBaromVisibWave heightAir tempDewpointWater temp
2014-Sep-20 17:08N 58°04' E 006°01'3 6.0
2014-Sep-20 16:33N 58°02' E 006°06'57 6.4
2014-Sep-20 07:33N 57°46' E 007°49'6 6.0
2014-Sep-20 06:31N 57°46' E 008°01'6 5.9
2014-Sep-20 05:30N 57°46' E 008°12'14 6.8
2014-Sep-20 03:29N 57°47' E 008°38'7 7.9
2014-Sep-20 02:33N 57°47' E 008°51'7 6.8
2014-Sep-20 01:33N 57°47' E 009°04'6 6.0
2014-Sep-20 00:33N 57°47' E 009°15'6 5.9
2014-Sep-19 23:33N 57°47' E 009°27'7 6.9
2014-Sep-19 22:32N 57°48' E 009°40'7 6.5
2014-Sep-19 21:23N 57°48' E 009°54'15 7.8
2014-Sep-19 19:29N 57°48' E 010°21'1010.2
2014-Sep-19 18:33N 57°49' E 010°39'7 7.3
2014-Sep-19 17:33N 57°42' E 010°46'5 3.9
2014-Sep-19 16:16N 57°38' E 010°41'0 0.0
2014-Sep-19 15:31N 57°38' E 010°41'0 0.0
2014-Sep-19 13:04N 57°38' E 010°41'0 0.0
2014-Sep-19 12:25N 57°38' E 010°41'0 0.0
2014-Sep-19 11:28N 57°38' E 010°41'0 0.1
2014-Sep-19 10:31N 57°38' E 010°41'0 0.0
2014-Sep-19 09:31N 57°38' E 010°41'0 0.0
2014-Sep-19 08:31N 57°38' E 010°41'0 0.0
2014-Sep-19 07:28N 57°38' E 010°41'0 0.0
2014-Sep-19 06:31N 57°38' E 010°41'0 0.0
2014-Sep-19 05:31N 57°38' E 010°41'0 0.0
2014-Sep-19 04:31N 57°38' E 010°41'0 0.0
2014-Sep-19 03:31N 57°38' E 010°41'0 0.0
2014-Sep-19 02:25N 57°38' E 010°41'0 0.0
2014-Sep-19 01:28N 57°38' E 010°41'0 0.0
2014-Sep-19 00:22N 57°38' E 010°41'0 0.0
2014-Sep-18 23:22N 57°38' E 010°41'0 0.0
2014-Sep-18 21:07N 57°38' E 010°41'0 0.0
2014-Sep-18 20:19N 57°38' E 010°41'0 0.0
2014-Sep-18 19:22N 57°38' E 010°41'0 0.0
2014-Sep-18 17:07N 57°38' E 010°41'0 0.0
2014-Sep-18 15:25N 57°38' E 010°41'0 0.0
2014-Sep-18 14:19N 57°38' E 010°41'0 0.0
2014-Sep-18 12:22N 57°38' E 010°41'0 0.0
2014-Sep-18 09:31N 57°38' E 010°41'0 0.0
2014-Sep-18 08:19N 57°38' E 010°41'0 0.0
2014-Sep-18 07:13N 57°38' E 010°41'0 0.0
2014-Sep-18 06:04N 57°38' E 010°41'0 0.0
2014-Sep-18 05:22N 57°38' E 010°41'0 0.0
2014-Sep-18 04:25N 57°38' E 010°41'0 0.0
2014-Sep-18 02:22N 57°38' E 010°41'0 0.0
2014-Sep-18 01:22N 57°38' E 010°41'0 0.0
2014-Sep-18 00:31N 57°38' E 010°41'0 0.0
2014-Sep-17 23:31N 57°38' E 010°41'0 0.0
2014-Sep-17 22:25N 57°38' E 010°41'0 0.0
2014-Sep-17 21:22N 57°38' E 010°41'0 0.0
2014-Sep-17 20:19N 57°38' E 010°41'0 0.0
2014-Sep-17 19:28N 57°38' E 010°41'0 0.0
2014-Sep-17 18:31N 57°38' E 010°41'0 0.0
2014-Sep-17 17:16N 57°38' E 010°41'0 0.0
2014-Sep-17 16:28N 57°38' E 010°41'0 0.0
2014-Sep-17 13:25N 57°38' E 010°41'0 0.0
2014-Sep-17 12:19N 57°38' E 010°41'0 0.0
2014-Sep-17 10:22N 57°38' E 010°41'0 0.0
2014-Sep-17 09:31N 57°38' E 010°41'0 0.0
2014-Sep-17 07:28N 57°38' E 010°41'0 0.0
2014-Sep-17 06:28N 57°38' E 010°41'0 0.0
2014-Sep-17 05:28N 57°38' E 010°41'0 0.0
2014-Sep-17 04:28N 57°38' E 010°41'0 0.0
2014-Sep-17 03:31N 57°38' E 010°41'0 0.0
2014-Sep-17 02:31N 57°38' E 010°41'0 0.0
2014-Sep-17 01:25N 57°38' E 010°41'0 0.0
2014-Sep-17 00:28N 57°38' E 010°41'0 0.0
2014-Sep-16 22:22N 57°38' E 010°41'0 0.0
2014-Sep-16 21:31N 57°38' E 010°41'0 0.0
2014-Sep-16 20:25N 57°38' E 010°41'0 0.0
2014-Sep-16 19:28N 57°38' E 010°41'0 0.0
2014-Sep-16 18:31N 57°38' E 010°41'0 0.0
2014-Sep-16 17:10N 57°38' E 010°41'0 0.0
2014-Sep-16 16:19N 57°38' E 010°41'0 0.0
2014-Sep-16 13:22N 57°38' E 010°41'0 0.0
2014-Sep-16 09:16N 57°38' E 010°41'0 0.0
2014-Sep-16 08:28N 57°38' E 010°41'0 0.1
2014-Sep-16 07:28N 57°38' E 010°41'0 0.1
2014-Sep-16 06:22N 57°38' E 010°41'0 0.0
2014-Sep-16 05:25N 57°38' E 010°41'0 0.0
2014-Sep-16 03:19N 57°38' E 010°41'0 0.0
2014-Sep-16 02:04N 57°38' E 010°41'0 0.0
2014-Sep-16 01:25N 57°38' E 010°41'0 0.0
2014-Sep-16 00:31N 57°38' E 010°41'0 0.0
2014-Sep-15 23:16N 57°38' E 010°41'0 0.1
2014-Sep-15 22:31N 57°38' E 010°41'0 0.0
2014-Sep-15 20:07N 57°38' E 010°41'0 0.1
2014-Sep-15 19:22N 57°38' E 010°41'0 0.0
2014-Sep-15 18:28N 57°38' E 010°41'0 0.0
2014-Sep-15 17:22N 57°38' E 010°41'0 0.0
2014-Sep-15 16:31N 57°38' E 010°41'2 2.4
2014-Sep-15 15:33N 57°40' E 010°43'7 7.0
2014-Sep-15 14:32N 57°47' E 010°42'284 6.0
2014-Sep-13 15:24N 54°16' E 005°02'6 7.2
2014-Sep-13 14:32N 54°11' E 004°57'7 6.9
2014-Sep-13 13:31N 54°05' E 004°50'7 6.6
2014-Sep-13 12:25N 53°59' E 004°42'7 6.0
2014-Sep-13 11:16N 53°54' E 004°34'4 4.9
2014-Sep-13 10:28N 53°51' E 004°30'5 5.0
2014-Sep-13 09:33N 53°48' E 004°24'7 5.3
2014-Sep-13 08:16N 53°44' E 004°16'61 6.2
2014-Sep-12 22:33N 52°53' E 003°19'8 6.8
2014-Sep-12 21:27N 52°47' E 003°13'23 5.8
2014-Sep-12 17:30N 52°27' E 002°55'20 4.1
2014-Sep-12 12:31N 52°07' E 002°46'0 0.0
2014-Sep-11 22:28N 52°07' E 002°45'0 0.0
2014-Sep-11 21:31N 52°07' E 002°46'30 1.3
2014-Sep-10 23:33N 52°03' E 003°33'1212.3
2014-Sep-10 22:33N 52°02' E 003°53'1111.4
2014-Sep-10 21:34N 51°57' E 004°09'2 1.8
2014-Sep-10 20:31N 51°56' E 004°12'0 0.0
2014-Sep-10 19:31N 51°56' E 004°12'0 0.0
2014-Sep-10 18:31N 51°56' E 004°12'0 0.0
2014-Sep-10 17:28N 51°56' E 004°12'  

Dump ship's entire track history